Time;durP1;ratioP1;P1;durP2;ratioP2;P2;SDS_P1;SDS_P2;PMS_P1;PMS_P2;Temp;Humidity;BMP_temperature;BMP_pressure;BME280_temperature;BME280_humidity;BME280_pressure;Samples;Min_cycle;Max_cycle;Signal;HPM_P1;HPM_P2
2022/07/22 00:00:15;;;;;;;13.85;12.45;;;;;;;;;;2081361;28;20180;-64
2022/07/22 00:01:16;;;;;;;12.13;10.48;;;;;;;;;;2072877;28;20183;-63
2022/07/22 00:02:16;;;;;;;9.82;8.93;;;;;;;;;;2072519;28;20571;-63
2022/07/22 00:03:16;;;;;;;9.85;8.82;;;;;;;;;;2079938;28;20208;-65
2022/07/22 00:04:17;;;;;;;9.35;8.45;;;;;;;;;;2076429;28;20193;-65
2022/07/22 00:05:17;;;;;;;9.77;8.77;;;;;;;;;;2073341;28;20173;-65
2022/07/22 00:06:17;;;;;;;8.88;8.05;;;;;;;;;;2067936;28;20656;-63
2022/07/22 00:07:18;;;;;;;9.30;8.32;;;;;;;;;;2064893;28;20241;-62
2022/07/22 00:08:18;;;;;;;9.38;8.32;;;;;;;;;;2064661;28;20276;-64
2022/07/22 00:09:19;;;;;;;10.57;7.75;;;;;;;;;;2064794;28;20208;-63
2022/07/22 00:10:19;;;;;;;9.30;7.93;;;;;;;;;;2073541;28;20200;-64
2022/07/22 00:11:19;;;;;;;9.43;8.52;;;;;;;;;;2071430;28;20288;-64
2022/07/22 00:12:19;;;;;;;9.20;8.27;;;;;;;;;;2073531;28;20231;-62
2022/07/22 00:13:20;;;;;;;9.10;8.20;;;;;;;;;;2067340;28;20170;-63
2022/07/22 00:14:20;;;;;;;11.15;9.18;;;;;;;;;;2069965;28;20200;-62
2022/07/22 00:15:20;;;;;;;9.75;8.68;;;;;;;;;;2073263;28;20177;-63
2022/07/22 00:16:21;;;;;;;10.57;9.48;;;;;;;;;;2073292;28;20165;-65
2022/07/22 00:17:21;;;;;;;11.60;9.52;;;;;;;;;;2073126;28;20705;-63
2022/07/22 00:18:21;;;;;;;10.95;9.85;;;;;;;;;;2073645;28;20547;-63
2022/07/22 00:19:24;;;;;;;11.27;10.10;;;;;;;;;;2073337;28;20185;-65
2022/07/22 00:20:24;;;;;;;10.73;9.73;;;;;;;;;;2073358;28;20176;-62
2022/07/22 00:21:24;;;;;;;8.13;7.43;;;;;;;;;;2064777;28;20165;-63
2022/07/22 00:22:25;;;;;;;8.43;7.57;;;;;;;;;;2064875;28;20182;-60
2022/07/22 00:23:25;;;;;;;7.75;7.05;;;;;;;;;;2073250;28;20173;-65
2022/07/22 00:24:25;;;;;;;7.82;6.75;;;;;;;;;;2072843;28;20189;-61
2022/07/22 00:25:28;;;;;;;9.05;8.15;;;;;;;;;;2073537;28;20161;-63
2022/07/22 00:26:28;;;;;;;8.90;8.00;;;;;;;;;;2064547;28;20201;-62
2022/07/22 00:27:28;;;;;;;9.38;8.50;;;;;;;;;;2064662;28;20189;-63
2022/07/22 00:28:29;;;;;;;8.95;8.05;;;;;;;;;;2072385;28;20172;-63
2022/07/22 00:29:29;;;;;;;9.90;7.82;;;;;;;;;;2073317;28;20212;-66
2022/07/22 00:30:30;;;;;;;9.77;7.70;;;;;;;;;;2073244;28;20546;-65
2022/07/22 00:31:30;;;;;;;9.32;7.68;;;;;;;;;;2072546;28;20169;-62
2022/07/22 00:32:31;;;;;;;8.70;7.68;;;;;;;;;;2065722;28;20296;-62
2022/07/22 00:33:31;;;;;;;9.05;8.18;;;;;;;;;;2064345;28;20228;-64
2022/07/22 00:34:32;;;;;;;8.85;7.25;;;;;;;;;;2055454;28;20198;-62
2022/07/22 00:35:32;;;;;;;8.10;7.20;;;;;;;;;;2056524;28;20252;-63
2022/07/22 00:36:32;;;;;;;7.63;6.90;;;;;;;;;;2056158;28;20233;-64
2022/07/22 00:37:33;;;;;;;8.13;7.35;;;;;;;;;;2056357;28;20170;-64
2022/07/22 00:38:33;;;;;;;8.07;6.60;;;;;;;;;;2056599;28;20281;-63
2022/07/22 00:39:33;;;;;;;6.88;6.25;;;;;;;;;;2061948;28;20192;-65
2022/07/22 00:40:34;;;;;;;7.63;6.93;;;;;;;;;;2064529;28;20180;-65
2022/07/22 00:41:34;;;;;;;7.72;7.03;;;;;;;;;;2064580;28;20227;-64
2022/07/22 00:42:34;;;;;;;7.60;6.90;;;;;;;;;;2073239;28;20208;-63
2022/07/22 00:43:47;;;;;;;7.20;6.50;;;;;;;;;;2064605;28;20216;-63
2022/07/22 00:44:48;;;;;;;9.45;7.47;;;;;;;;;;2065219;28;20169;-63
2022/07/22 00:45:49;;;;;;;8.40;7.63;;;;;;;;;;2064593;28;20184;-63
2022/07/22 00:46:49;;;;;;;8.23;7.47;;;;;;;;;;2064221;28;20177;-65
2022/07/22 00:47:49;;;;;;;7.88;7.05;;;;;;;;;;2073325;28;20189;-62
2022/07/22 00:48:50;;;;;;;8.88;8.07;;;;;;;;;;2064014;28;20209;-64
2022/07/22 00:49:50;;;;;;;7.30;6.72;;;;;;;;;;2064563;28;20204;-63
2022/07/22 00:50:51;;;;;;;8.52;7.72;;;;;;;;;;2081299;28;20172;-63
2022/07/22 00:51:51;;;;;;;11.07;7.53;;;;;;;;;;2081533;28;20644;-63
2022/07/22 00:52:52;;;;;;;9.07;7.70;;;;;;;;;;2072462;28;20224;-63
2022/07/22 00:53:53;;;;;;;8.13;7.32;;;;;;;;;;2070228;28;20572;-62
2022/07/22 00:54:54;;;;;;;7.88;7.18;;;;;;;;;;2063922;28;20543;-64
2022/07/22 00:55:55;;;;;;;7.80;7.10;;;;;;;;;;2064357;28;20188;-62
2022/07/22 00:56:57;;;;;;;7.25;6.57;;;;;;;;;;2064498;28;20169;-62
2022/07/22 00:57:58;;;;;;;8.50;7.28;;;;;;;;;;2056385;28;20260;-63
2022/07/22 00:59:00;;;;;;;7.95;7.25;;;;;;;;;;2064321;28;20749;-62
2022/07/22 01:00:01;;;;;;;7.82;7.07;;;;;;;;;;2064410;28;20185;-63
2022/07/22 01:01:01;;;;;;;7.68;6.88;;;;;;;;;;2064465;28;20174;-62
2022/07/22 01:02:01;;;;;;;10.50;7.68;;;;;;;;;;2064461;28;20705;-64
2022/07/22 01:03:02;;;;;;;8.38;7.60;;;;;;;;;;2062970;28;20184;-64
2022/07/22 01:04:03;;;;;;;7.95;7.15;;;;;;;;;;2066992;28;20192;-66
2022/07/22 01:05:04;;;;;;;9.30;7.43;;;;;;;;;;2072743;28;20173;-64
2022/07/22 01:06:05;;;;;;;6.75;6.15;;;;;;;;;;2064161;28;20189;-65
2022/07/22 01:07:05;;;;;;;7.00;6.40;;;;;;;;;;2056205;28;20221;-65
2022/07/22 01:08:06;;;;;;;6.50;5.95;;;;;;;;;;2056368;28;20209;-64
2022/07/22 01:09:06;;;;;;;10.05;6.25;;;;;;;;;;2064256;28;20189;-64
2022/07/22 01:10:07;;;;;;;7.15;5.78;;;;;;;;;;2056196;28;20206;-64
2022/07/22 01:11:15;;;;;;;6.20;5.47;;;;;;;;;;2059957;28;20213;-63
2022/07/22 01:12:15;;;;;;;6.45;5.78;;;;;;;;;;2073342;28;20637;-63
2022/07/22 01:13:16;;;;;;;7.75;5.38;;;;;;;;;;2064313;28;20177;-61
2022/07/22 01:14:16;;;;;;;6.88;5.43;;;;;;;;;;2063925;28;20564;-62
2022/07/22 01:15:16;;;;;;;5.78;4.90;;;;;;;;;;2073355;28;20528;-63
2022/07/22 01:16:18;;;;;;;6.55;4.78;;;;;;;;;;2065041;28;20276;-63
2022/07/22 01:17:18;;;;;;;7.53;4.95;;;;;;;;;;2066102;28;20174;-63
2022/07/22 01:18:19;;;;;;;6.63;4.88;;;;;;;;;;2058416;28;20667;-63
2022/07/22 01:19:20;;;;;;;6.15;4.68;;;;;;;;;;2058439;28;20210;-63
2022/07/22 01:20:21;;;;;;;5.50;5.00;;;;;;;;;;2066532;28;20184;-63
2022/07/22 01:21:21;;;;;;;4.80;4.05;;;;;;;;;;2062048;28;20265;-61
2022/07/22 01:22:22;;;;;;;6.05;4.35;;;;;;;;;;2058137;28;20179;-63
2022/07/22 01:23:23;;;;;;;4.43;3.97;;;;;;;;;;2066043;28;20570;-62
2022/07/22 01:24:23;;;;;;;4.43;4.05;;;;;;;;;;2064806;28;20225;-62
2022/07/22 01:25:24;;;;;;;4.43;4.03;;;;;;;;;;2066006;28;20166;-63
2022/07/22 01:26:24;;;;;;;8.43;4.80;;;;;;;;;;2057971;28;20599;-62
2022/07/22 01:27:25;;;;;;;4.78;4.38;;;;;;;;;;2058234;28;20166;-64
2022/07/22 01:28:25;;;;;;;4.20;3.63;;;;;;;;;;2065780;28;20162;-62
2022/07/22 01:29:26;;;;;;;5.40;4.50;;;;;;;;;;2063161;28;20229;-61
2022/07/22 01:30:26;;;;;;;5.22;4.50;;;;;;;;;;2057701;28;20942;-61
2022/07/22 01:31:27;;;;;;;4.53;4.22;;;;;;;;;;2065941;28;20254;-63
2022/07/22 01:32:28;;;;;;;4.35;3.92;;;;;;;;;;2065803;28;20179;-63
2022/07/22 01:33:28;;;;;;;4.60;4.20;;;;;;;;;;2065951;28;20661;-63
2022/07/22 01:34:29;;;;;;;5.05;3.88;;;;;;;;;;2064498;28;20193;-63
2022/07/22 01:35:29;;;;;;;4.32;3.92;;;;;;;;;;2065838;28;20182;-63
2022/07/22 01:36:29;;;;;;;4.10;3.63;;;;;;;;;;2055936;28;20174;-64
2022/07/22 01:37:31;;;;;;;3.88;3.58;;;;;;;;;;2066221;28;20209;-62
2022/07/22 01:38:31;;;;;;;3.90;3.58;;;;;;;;;;2057766;28;20175;-63
2022/07/22 01:39:32;;;;;;;4.32;3.55;;;;;;;;;;2057339;28;20177;-61
2022/07/22 01:40:32;;;;;;;4.82;3.63;;;;;;;;;;2048114;28;20655;-64
2022/07/22 01:41:33;;;;;;;5.32;3.40;;;;;;;;;;2057677;28;20609;-62
2022/07/22 01:42:33;;;;;;;5.55;3.88;;;;;;;;;;2057704;28;20679;-59
2022/07/22 01:43:33;;;;;;;3.60;3.30;;;;;;;;;;2065905;28;20220;-63
2022/07/22 01:44:34;;;;;;;3.67;3.38;;;;;;;;;;2064545;28;20204;-65
2022/07/22 01:45:34;;;;;;;3.70;3.30;;;;;;;;;;2065908;28;20174;-63
2022/07/22 01:46:35;;;;;;;6.45;3.55;;;;;;;;;;2065531;28;20272;-61
2022/07/22 01:47:36;;;;;;;3.38;3.08;;;;;;;;;;2065847;28;20204;-62
2022/07/22 01:48:36;;;;;;;5.70;3.28;;;;;;;;;;2057422;28;20208;-65
2022/07/22 01:49:37;;;;;;;3.75;3.45;;;;;;;;;;2057777;28;20210;-63
2022/07/22 01:50:37;;;;;;;4.43;2.72;;;;;;;;;;2063951;28;20181;-64
2022/07/22 01:51:37;;;;;;;3.45;3.10;;;;;;;;;;2059832;28;20631;-62
2022/07/22 01:52:39;;;;;;;5.72;3.50;;;;;;;;;;2057553;28;20674;-63
2022/07/22 01:53:39;;;;;;;3.92;3.13;;;;;;;;;;2057871;28;20205;-64
2022/07/22 01:54:40;;;;;;;4.70;3.50;;;;;;;;;;2056856;28;20210;-61
2022/07/22 01:55:40;;;;;;;6.57;3.60;;;;;;;;;;2065473;28;20180;-61
2022/07/22 01:56:41;;;;;;;6.00;3.70;;;;;;;;;;2057729;28;20201;-62
2022/07/22 01:57:41;;;;;;;3.88;3.10;;;;;;;;;;2049826;28;20373;-63
2022/07/22 01:58:51;;;;;;;4.35;3.42;;;;;;;;;;2051918;28;20171;-63
2022/07/22 01:59:56;;;;;;;4.65;3.20;;;;;;;;;;2065541;28;20260;-62
2022/07/22 02:00:57;;;;;;;4.32;3.35;;;;;;;;;;2065719;28;20169;-63
2022/07/22 02:01:57;;;;;;;4.03;3.10;;;;;;;;;;2065221;28;20660;-60
2022/07/22 02:02:58;;;;;;;5.90;3.38;;;;;;;;;;2058669;28;20186;-60
2022/07/22 02:03:59;;;;;;;3.97;3.58;;;;;;;;;;2057787;28;20178;-56
2022/07/22 02:04:59;;;;;;;3.90;3.60;;;;;;;;;;2065422;28;20244;-62
2022/07/22 02:06:00;;;;;;;3.53;3.22;;;;;;;;;;2065550;28;20176;-62
2022/07/22 02:07:02;;;;;;;3.80;3.35;;;;;;;;;;2057755;28;20177;-64
2022/07/22 02:08:04;;;;;;;4.40;4.00;;;;;;;;;;2057904;28;20189;-63
2022/07/22 02:09:11;;;;;;;4.50;3.65;;;;;;;;;;2058950;28;20159;-62
2022/07/22 02:10:15;;;;;;;4.82;4.00;;;;;;;;;;2066483;28;20781;-64
2022/07/22 02:11:16;;;;;;;3.85;3.53;;;;;;;;;;2065476;28;20181;-64
2022/07/22 02:12:34;;;;;;;4.28;3.65;;;;;;;;;;2067778;28;20161;-62
2022/07/22 02:13:36;;;;;;;3.67;3.25;;;;;;;;;;2065634;28;21042;-59
2022/07/22 02:14:36;;;;;;;4.13;3.72;;;;;;;;;;2059783;28;20190;-63
2022/07/22 02:15:37;;;;;;;4.05;3.25;;;;;;;;;;2057529;28;20226;-63
2022/07/22 02:16:37;;;;;;;4.38;3.80;;;;;;;;;;2065804;28;20249;-62
2022/07/22 02:17:39;;;;;;;4.10;3.60;;;;;;;;;;2065896;28;20174;-61
2022/07/22 02:18:41;;;;;;;3.95;3.65;;;;;;;;;;2065678;28;20166;-63
2022/07/22 02:19:43;;;;;;;7.75;3.92;;;;;;;;;;2057409;28;20175;-64
2022/07/22 02:20:46;;;;;;;6.60;3.60;;;;;;;;;;2057699;28;20261;-63
2022/07/22 02:21:48;;;;;;;4.53;4.13;;;;;;;;;;2065888;28;20229;-63
2022/07/22 02:22:50;;;;;;;3.90;3.60;;;;;;;;;;2065949;28;20201;-63
2022/07/22 02:23:51;;;;;;;7.18;4.72;;;;;;;;;;2057224;28;20186;-61
2022/07/22 02:24:52;;;;;;;4.82;4.13;;;;;;;;;;2057715;28;20186;-63
2022/07/22 02:25:52;;;;;;;4.18;3.78;;;;;;;;;;2057581;28;20193;-63
2022/07/22 02:26:52;;;;;;;4.25;3.95;;;;;;;;;;2057678;28;20667;-61
2022/07/22 02:27:53;;;;;;;3.95;3.50;;;;;;;;;;2056303;28;20190;-60
2022/07/22 02:28:53;;;;;;;4.90;3.85;;;;;;;;;;2057390;28;20167;-64
2022/07/22 02:29:54;;;;;;;3.72;3.40;;;;;;;;;;2064884;28;20244;-64
2022/07/22 02:30:54;;;;;;;3.80;3.45;;;;;;;;;;2065401;28;20313;-64
2022/07/22 02:31:54;;;;;;;4.25;3.67;;;;;;;;;;2065335;28;20174;-63
2022/07/22 02:32:56;;;;;;;5.18;3.95;;;;;;;;;;2065695;28;20181;-63
2022/07/22 02:33:56;;;;;;;7.22;4.03;;;;;;;;;;2064899;28;20695;-64
2022/07/22 02:34:58;;;;;;;4.35;3.92;;;;;;;;;;2064911;28;20174;-64
2022/07/22 02:35:58;;;;;;;4.38;4.03;;;;;;;;;;2057430;28;20185;-61
2022/07/22 02:36:59;;;;;;;4.05;3.75;;;;;;;;;;2049935;28;20262;-63
2022/07/22 02:37:59;;;;;;;7.25;4.30;;;;;;;;;;2057544;28;20178;-63
2022/07/22 02:39:00;;;;;;;4.60;3.80;;;;;;;;;;2064126;28;20253;-64
2022/07/22 02:40:00;;;;;;;4.88;3.83;;;;;;;;;;2057501;28;20186;-63
2022/07/22 02:41:01;;;;;;;4.53;4.13;;;;;;;;;;2065424;28;20185;-61
2022/07/22 02:42:02;;;;;;;3.90;3.53;;;;;;;;;;2057246;28;20560;-64
2022/07/22 02:43:05;;;;;;;5.60;4.97;;;;;;;;;;2049964;28;20193;-60
2022/07/22 02:44:06;;;;;;;4.57;4.25;;;;;;;;;;2056950;28;20210;-63
2022/07/22 02:45:07;;;;;;;6.47;4.85;;;;;;;;;;2057134;28;20171;-61
2022/07/22 02:46:08;;;;;;;4.75;3.97;;;;;;;;;;2065630;28;20185;-63
2022/07/22 02:47:08;;;;;;;5.38;3.72;;;;;;;;;;2057361;28;20222;-63
2022/07/22 02:48:09;;;;;;;6.47;5.03;;;;;;;;;;2065448;28;20646;-62
2022/07/22 02:49:10;;;;;;;4.85;4.45;;;;;;;;;;2057289;28;20178;-64
2022/07/22 02:50:11;;;;;;;6.43;4.28;;;;;;;;;;2058474;28;20193;-62
2022/07/22 02:51:11;;;;;;;4.05;3.75;;;;;;;;;;2065542;28;20185;-63
2022/07/22 02:52:12;;;;;;;5.00;4.70;;;;;;;;;;2065421;28;20381;-64
2022/07/22 02:53:12;;;;;;;5.95;5.45;;;;;;;;;;2049305;28;20207;-59
2022/07/22 02:54:13;;;;;;;8.23;5.18;;;;;;;;;;2040525;29;20203;-63
2022/07/22 02:55:14;;;;;;;8.75;4.80;;;;;;;;;;2049233;28;20171;-63
2022/07/22 02:56:14;;;;;;;5.72;4.50;;;;;;;;;;2057336;28;20185;-64
2022/07/22 02:57:15;;;;;;;7.45;4.93;;;;;;;;;;2057312;28;20182;-63
2022/07/22 02:58:15;;;;;;;8.30;5.43;;;;;;;;;;2057279;28;20182;-64
2022/07/22 02:59:17;;;;;;;7.32;5.47;;;;;;;;;;2065053;28;20268;-62
2022/07/22 03:00:18;;;;;;;6.00;5.40;;;;;;;;;;2065080;28;20174;-60
2022/07/22 03:01:19;;;;;;;5.20;4.68;;;;;;;;;;2065330;28;20197;-64
2022/07/22 03:02:25;;;;;;;5.10;4.65;;;;;;;;;;2065247;28;20181;-62
2022/07/22 03:03:26;;;;;;;5.32;4.28;;;;;;;;;;2049068;28;20179;-59
2022/07/22 03:04:27;;;;;;;6.53;4.13;;;;;;;;;;2048234;28;20249;-63
2022/07/22 03:05:28;;;;;;;4.90;4.30;;;;;;;;;;2057028;28;20182;-62
2022/07/22 03:06:41;;;;;;;4.35;3.95;;;;;;;;;;2049240;28;20179;-62
2022/07/22 03:07:45;;;;;;;4.57;4.15;;;;;;;;;;2041712;29;20174;-65
2022/07/22 03:08:48;;;;;;;4.15;3.78;;;;;;;;;;2042120;28;20191;-61
2022/07/22 03:09:49;;;;;;;4.82;4.03;;;;;;;;;;2056308;28;20198;-61
2022/07/22 03:10:50;;;;;;;5.00;4.30;;;;;;;;;;2056537;28;20168;-63
2022/07/22 03:11:50;;;;;;;5.07;4.03;;;;;;;;;;2067295;28;20586;-62
2022/07/22 03:12:51;;;;;;;4.90;4.50;;;;;;;;;;2071402;28;20176;-61
2022/07/22 03:13:51;;;;;;;4.90;4.22;;;;;;;;;;2057139;28;20638;-62
2022/07/22 03:14:53;;;;;;;4.72;3.90;;;;;;;;;;2059120;28;20639;-64
2022/07/22 03:15:53;;;;;;;5.43;4.28;;;;;;;;;;2073483;28;20169;-61
2022/07/22 03:16:55;;;;;;;6.88;4.07;;;;;;;;;;2073360;28;20201;-60
2022/07/22 03:17:55;;;;;;;5.03;3.83;;;;;;;;;;2065159;28;20173;-61
2022/07/22 03:18:56;;;;;;;6.55;3.85;;;;;;;;;;2066760;28;20218;-63
2022/07/22 03:19:57;;;;;;;5.38;4.72;;;;;;;;;;2065192;28;20215;-63
2022/07/22 03:20:57;;;;;;;6.82;3.72;;;;;;;;;;2057134;28;20174;-62
2022/07/22 03:21:57;;;;;;;3.83;3.40;;;;;;;;;;2057281;28;20186;-61
2022/07/22 03:22:58;;;;;;;6.05;3.70;;;;;;;;;;2064931;28;20272;-64
2022/07/22 03:23:58;;;;;;;5.38;3.95;;;;;;;;;;2057525;28;20191;-61
2022/07/22 03:24:59;;;;;;;5.05;3.90;;;;;;;;;;2056687;28;20181;-64
2022/07/22 03:25:59;;;;;;;4.60;4.10;;;;;;;;;;2057041;28;20178;-62
2022/07/22 03:27:00;;;;;;;5.00;4.45;;;;;;;;;;2057150;28;20240;-63
2022/07/22 03:28:00;;;;;;;6.50;4.28;;;;;;;;;;2049492;28;20178;-63
2022/07/22 03:29:00;;;;;;;5.88;3.90;;;;;;;;;;2059074;28;20174;-64
2022/07/22 03:30:01;;;;;;;5.28;3.95;;;;;;;;;;2057832;28;20326;-63
2022/07/22 03:31:02;;;;;;;4.80;4.38;;;;;;;;;;2056260;28;20185;-65
2022/07/22 03:32:02;;;;;;;4.78;4.00;;;;;;;;;;2056830;28;20265;-60
2022/07/22 03:33:12;;;;;;;4.72;4.00;;;;;;;;;;2057331;28;20596;-62
2022/07/22 03:34:14;;;;;;;7.13;4.40;;;;;;;;;;2041453;29;20199;-63
2022/07/22 03:35:22;;;;;;;5.28;3.95;;;;;;;;;;2045764;28;20183;-62
2022/07/22 03:36:22;;;;;;;6.38;4.40;;;;;;;;;;2051851;29;20218;-62
2022/07/22 03:37:25;;;;;;;4.40;4.03;;;;;;;;;;2053600;28;20171;-62
2022/07/22 03:38:25;;;;;;;4.07;3.67;;;;;;;;;;2058798;28;20189;-62
2022/07/22 03:39:26;;;;;;;3.75;3.40;;;;;;;;;;2057834;28;20186;-60
2022/07/22 03:40:26;;;;;;;4.03;3.75;;;;;;;;;;2057801;28;20177;-61
2022/07/22 03:41:27;;;;;;;5.38;3.58;;;;;;;;;;2065564;28;20174;-63
2022/07/22 03:42:28;;;;;;;6.50;3.85;;;;;;;;;;2057689;28;20293;-59
2022/07/22 03:43:30;;;;;;;4.25;3.85;;;;;;;;;;2049338;28;20191;-61
2022/07/22 03:44:30;;;;;;;5.07;4.07;;;;;;;;;;2067884;28;20204;-62
2022/07/22 03:45:31;;;;;;;4.10;3.50;;;;;;;;;;2064650;28;20256;-60
2022/07/22 03:46:31;;;;;;;4.78;4.13;;;;;;;;;;2048905;29;20183;-60
2022/07/22 03:47:32;;;;;;;4.10;3.70;;;;;;;;;;2048818;29;20222;-62
2022/07/22 03:48:32;;;;;;;4.82;3.80;;;;;;;;;;2051113;28;20174;-62
2022/07/22 03:49:32;;;;;;;4.75;3.53;;;;;;;;;;2064687;28;20177;-59
2022/07/22 03:50:33;;;;;;;3.92;3.63;;;;;;;;;;2062688;28;20170;-64
2022/07/22 03:51:34;;;;;;;4.10;3.70;;;;;;;;;;2065011;28;20567;-61
2022/07/22 03:52:34;;;;;;;5.45;4.07;;;;;;;;;;2073232;28;20229;-62
2022/07/22 03:53:38;;;;;;;4.22;3.67;;;;;;;;;;2069979;28;20177;-60
2022/07/22 03:54:38;;;;;;;4.40;3.70;;;;;;;;;;2063651;28;20276;-60
2022/07/22 03:55:39;;;;;;;6.07;4.03;;;;;;;;;;2064540;28;20178;-61
2022/07/22 03:56:40;;;;;;;9.38;4.40;;;;;;;;;;2056342;28;20201;-62
2022/07/22 03:57:40;;;;;;;5.95;4.15;;;;;;;;;;2056496;28;20558;-63
2022/07/22 03:58:47;;;;;;;6.47;3.90;;;;;;;;;;2056983;28;20170;-62
2022/07/22 03:59:47;;;;;;;4.65;4.18;;;;;;;;;;2056417;28;20178;-61
2022/07/22 04:00:48;;;;;;;4.68;4.22;;;;;;;;;;2056470;28;20546;-63
2022/07/22 04:01:49;;;;;;;4.30;3.90;;;;;;;;;;2056508;28;20233;-61
2022/07/22 04:02:49;;;;;;;6.28;4.28;;;;;;;;;;2053516;28;20186;-59
2022/07/22 04:03:55;;;;;;;5.35;3.92;;;;;;;;;;2056608;28;20170;-61
2022/07/22 04:05:06;;;;;;;8.88;3.97;;;;;;;;;;2057892;28;20174;-60
2022/07/22 04:06:06;;;;;;;5.53;4.25;;;;;;;;;;2056302;28;20185;-61
2022/07/22 04:07:18;;;;;;;4.72;4.32;;;;;;;;;;2057833;28;20178;-62
2022/07/22 04:08:19;;;;;;;6.55;4.45;;;;;;;;;;2064462;28;20181;-62
2022/07/22 04:09:21;;;;;;;4.32;3.92;;;;;;;;;;2064168;28;20181;-63
2022/07/22 04:10:21;;;;;;;6.65;4.45;;;;;;;;;;2064474;28;20209;-61
2022/07/22 04:11:21;;;;;;;5.90;4.40;;;;;;;;;;2058860;28;20281;-64
2022/07/22 04:12:22;;;;;;;4.60;4.05;;;;;;;;;;2048397;28;20273;-62
2022/07/22 04:13:41;;;;;;;5.55;4.28;;;;;;;;;;2064385;28;20264;-64
2022/07/22 04:14:42;;;;;;;5.05;3.80;;;;;;;;;;2063354;28;20577;-64
2022/07/22 04:15:42;;;;;;;4.10;3.80;;;;;;;;;;2056360;28;20182;-62
2022/07/22 04:16:43;;;;;;;6.30;4.43;;;;;;;;;;2056235;28;20193;-63
2022/07/22 04:17:44;;;;;;;5.82;4.00;;;;;;;;;;2056424;28;20190;-62
2022/07/22 04:18:44;;;;;;;4.90;4.50;;;;;;;;;;2056051;28;20249;-63
2022/07/22 04:19:44;;;;;;;7.88;4.72;;;;;;;;;;2048369;29;20265;-62
2022/07/22 04:20:54;;;;;;;5.40;4.45;;;;;;;;;;2053063;28;20183;-63
2022/07/22 04:22:17;;;;;;;5.68;4.53;;;;;;;;;;2062065;28;20559;-63
2022/07/22 04:23:17;;;;;;;5.03;4.53;;;;;;;;;;2064174;28;20194;-63
2022/07/22 04:24:18;;;;;;;4.88;4.47;;;;;;;;;;2055124;28;20233;-62
2022/07/22 04:25:18;;;;;;;7.65;4.88;;;;;;;;;;2064148;28;20561;-63
2022/07/22 04:26:18;;;;;;;5.20;3.95;;;;;;;;;;2056087;28;20178;-62
2022/07/22 04:27:19;;;;;;;4.75;4.35;;;;;;;;;;2055703;28;20174;-63
2022/07/22 04:28:19;;;;;;;4.78;3.65;;;;;;;;;;2061966;28;20203;-61
2022/07/22 04:29:20;;;;;;;4.50;3.65;;;;;;;;;;2070521;28;20231;-63
2022/07/22 04:30:20;;;;;;;3.63;3.25;;;;;;;;;;2072245;28;20278;-63
2022/07/22 04:31:23;;;;;;;4.22;3.83;;;;;;;;;;2056154;28;20193;-62
2022/07/22 04:32:30;;;;;;;7.40;4.20;;;;;;;;;;2064444;28;20189;-64
2022/07/22 04:33:30;;;;;;;4.72;4.40;;;;;;;;;;2064353;28;20561;-65
2022/07/22 04:34:30;;;;;;;4.57;4.15;;;;;;;;;;2063052;28;20209;-62
2022/07/22 04:35:32;;;;;;;6.22;4.97;;;;;;;;;;2056338;28;20182;-62
2022/07/22 04:36:42;;;;;;;6.43;4.50;;;;;;;;;;2057456;28;20851;-63
2022/07/22 04:37:43;;;;;;;7.32;4.30;;;;;;;;;;2056203;28;20178;-58
2022/07/22 04:38:43;;;;;;;4.88;4.22;;;;;;;;;;2056150;28;20182;-63
2022/07/22 04:39:44;;;;;;;7.93;4.60;;;;;;;;;;2064273;28;20235;-65
2022/07/22 04:40:45;;;;;;;6.63;4.25;;;;;;;;;;2055846;28;20273;-60
2022/07/22 04:41:46;;;;;;;6.93;4.95;;;;;;;;;;2056050;28;20180;-64
2022/07/22 04:42:49;;;;;;;6.18;4.80;;;;;;;;;;2056449;28;20224;-63
2022/07/22 04:43:50;;;;;;;7.60;5.05;;;;;;;;;;2056086;28;20248;-63
2022/07/22 04:44:54;;;;;;;7.43;4.28;;;;;;;;;;2055755;28;20170;-64
2022/07/22 04:45:55;;;;;;;7.03;4.82;;;;;;;;;;2064213;28;20185;-63
2022/07/22 04:46:57;;;;;;;5.38;4.45;;;;;;;;;;2056131;28;20174;-64
2022/07/22 04:47:57;;;;;;;7.28;4.55;;;;;;;;;;2055963;28;20170;-63
2022/07/22 04:48:58;;;;;;;6.97;4.47;;;;;;;;;;2063985;28;20269;-60
2022/07/22 04:49:58;;;;;;;8.40;4.30;;;;;;;;;;2065237;28;20236;-62
2022/07/22 04:51:02;;;;;;;6.45;4.20;;;;;;;;;;2076515;28;20180;-59
2022/07/22 04:52:04;;;;;;;8.70;5.15;;;;;;;;;;2065652;28;20726;-64
2022/07/22 04:53:13;;;;;;;9.32;5.05;;;;;;;;;;2065459;28;20199;-61
2022/07/22 04:54:14;;;;;;;7.03;4.65;;;;;;;;;;2017131;28;1155772;-62
2022/07/22 04:55:16;;;;;;;9.30;5.45;;;;;;;;;;2058455;28;20185;-62
2022/07/22 04:56:17;;;;;;;6.85;4.53;;;;;;;;;;2065678;28;20180;-61
2022/07/22 04:57:18;;;;;;;6.55;5.00;;;;;;;;;;2058080;28;20229;-63
2022/07/22 04:58:19;;;;;;;9.05;5.53;;;;;;;;;;2065947;28;20181;-61
2022/07/22 04:59:21;;;;;;;10.05;5.30;;;;;;;;;;2065939;28;20204;-62
2022/07/22 05:00:22;;;;;;;10.95;6.07;;;;;;;;;;2057964;28;20186;-64
2022/07/22 05:01:27;;;;;;;8.85;5.15;;;;;;;;;;2065980;28;20884;-63
2022/07/22 05:02:29;;;;;;;8.75;5.50;;;;;;;;;;2054971;28;20700;-62
2022/07/22 05:03:30;;;;;;;10.00;5.53;;;;;;;;;;2050018;28;20186;-63
2022/07/22 05:04:30;;;;;;;7.20;5.07;;;;;;;;;;2041141;29;20207;-63
2022/07/22 05:05:30;;;;;;;11.35;5.30;;;;;;;;;;2063008;28;20256;-63
2022/07/22 05:06:31;;;;;;;8.20;5.07;;;;;;;;;;2057912;28;20193;-61
2022/07/22 05:07:32;;;;;;;11.35;4.60;;;;;;;;;;2057701;28;20702;-64
2022/07/22 05:08:32;;;;;;;10.45;4.70;;;;;;;;;;2057567;28;20236;-63
2022/07/22 05:09:33;;;;;;;8.43;5.05;;;;;;;;;;2065547;28;20595;-64
2022/07/22 05:10:33;;;;;;;9.45;4.97;;;;;;;;;;2065854;28;20189;-62
2022/07/22 05:11:34;;;;;;;12.20;5.40;;;;;;;;;;2051057;28;20324;-61
2022/07/22 05:12:34;;;;;;;12.23;5.70;;;;;;;;;;2049921;28;20209;-62
2022/07/22 05:13:35;;;;;;;11.88;5.43;;;;;;;;;;2050114;29;20179;-64
2022/07/22 05:14:35;;;;;;;8.63;5.13;;;;;;;;;;2057128;28;20672;-60
2022/07/22 05:15:35;;;;;;;9.50;5.05;;;;;;;;;;2051052;28;20190;-62
2022/07/22 05:16:39;;;;;;;11.85;6.18;;;;;;;;;;2050122;29;20318;-62
2022/07/22 05:17:40;;;;;;;10.75;5.32;;;;;;;;;;2059208;28;20609;-59
2022/07/22 05:18:51;;;;;;;5.95;4.45;;;;;;;;;;2055933;28;20576;-62
2022/07/22 05:19:52;;;;;;;11.75;5.55;;;;;;;;;;2053400;28;20178;-63
2022/07/22 05:20:52;;;;;;;9.50;5.00;;;;;;;;;;2057929;28;20178;-64
2022/07/22 05:21:52;;;;;;;8.10;4.82;;;;;;;;;;2065759;28;20261;-64
2022/07/22 05:22:53;;;;;;;9.48;4.82;;;;;;;;;;2066050;28;20612;-64
2022/07/22 05:24:00;;;;;;;10.15;5.40;;;;;;;;;;2053821;28;20159;-61
2022/07/22 05:25:01;;;;;;;10.82;5.07;;;;;;;;;;2057719;28;20189;-64
2022/07/22 05:26:03;;;;;;;8.95;5.25;;;;;;;;;;2049926;29;20185;-64
2022/07/22 05:27:04;;;;;;;12.23;5.55;;;;;;;;;;2050110;28;20179;-63
2022/07/22 05:28:04;;;;;;;10.93;5.13;;;;;;;;;;2049930;29;20617;-63
2022/07/22 05:29:11;;;;;;;9.32;5.53;;;;;;;;;;2050605;28;20660;-65
2022/07/22 05:30:11;;;;;;;7.82;4.82;;;;;;;;;;2058055;28;20241;-62
2022/07/22 05:31:12;;;;;;;6.65;4.38;;;;;;;;;;2057878;28;20179;-64
2022/07/22 05:32:13;;;;;;;10.27;5.30;;;;;;;;;;2049820;28;20171;-62
2022/07/22 05:33:14;;;;;;;10.55;5.22;;;;;;;;;;2049828;29;20238;-64
2022/07/22 05:34:32;;;;;;;12.73;5.60;;;;;;;;;;2059556;28;20213;-63
2022/07/22 05:35:33;;;;;;;6.60;5.03;;;;;;;;;;2066356;28;20161;-64
2022/07/22 05:36:33;;;;;;;8.00;5.10;;;;;;;;;;2064630;28;20232;-58
2022/07/22 05:37:33;;;;;;;10.55;4.85;;;;;;;;;;2061059;28;20190;-64
2022/07/22 05:38:34;;;;;;;6.80;4.63;;;;;;;;;;2057854;28;20574;-63
2022/07/22 05:39:35;;;;;;;7.30;4.60;;;;;;;;;;2057597;28;20182;-63
2022/07/22 05:40:35;;;;;;;9.90;5.10;;;;;;;;;;2057564;28;20185;-61
2022/07/22 05:41:38;;;;;;;8.07;5.55;;;;;;;;;;2057958;28;20186;-63
2022/07/22 05:42:38;;;;;;;8.63;5.13;;;;;;;;;;2057901;28;20813;-62
2022/07/22 05:43:38;;;;;;;10.57;4.90;;;;;;;;;;2049972;28;20186;-65
2022/07/22 05:44:39;;;;;;;11.65;5.07;;;;;;;;;;2056982;28;20257;-63
2022/07/22 05:45:40;;;;;;;7.78;5.28;;;;;;;;;;2074700;28;20264;-63
2022/07/22 05:46:40;;;;;;;9.38;5.32;;;;;;;;;;2063415;28;20165;-62
2022/07/22 05:47:41;;;;;;;7.25;5.25;;;;;;;;;;2057926;28;20264;-63
2022/07/22 05:48:41;;;;;;;10.15;5.57;;;;;;;;;;2057311;28;20206;-64
2022/07/22 05:49:42;;;;;;;9.23;5.85;;;;;;;;;;2057496;28;20178;-64
2022/07/22 05:50:42;;;;;;;7.63;5.18;;;;;;;;;;2072701;28;20181;-57
2022/07/22 05:51:43;;;;;;;11.27;5.43;;;;;;;;;;2074092;28;20689;-65
2022/07/22 05:52:43;;;;;;;11.88;5.55;;;;;;;;;;2073914;28;20193;-64
2022/07/22 05:53:44;;;;;;;7.65;4.97;;;;;;;;;;2073850;28;20547;-60
2022/07/22 05:54:45;;;;;;;10.68;5.15;;;;;;;;;;2072353;28;20260;-64
2022/07/22 05:55:46;;;;;;;7.68;4.80;;;;;;;;;;2057294;28;20177;-63
2022/07/22 05:56:46;;;;;;;7.60;5.90;;;;;;;;;;2052112;28;20167;-59
2022/07/22 05:57:47;;;;;;;12.32;5.40;;;;;;;;;;2049645;28;20187;-63
2022/07/22 05:58:48;;;;;;;8.02;5.43;;;;;;;;;;2053898;28;20202;-58
2022/07/22 05:59:49;;;;;;;7.20;5.25;;;;;;;;;;2062116;28;20177;-65
2022/07/22 06:00:49;;;;;;;7.20;5.95;;;;;;;;;;2051447;28;20194;-64
2022/07/22 06:01:49;;;;;;;6.55;5.03;;;;;;;;;;2057313;28;20186;-60
2022/07/22 06:03:13;;;;;;;9.57;5.00;;;;;;;;;;2056445;28;20178;-61
2022/07/22 06:04:13;;;;;;;7.15;5.00;;;;;;;;;;2060357;28;20571;-60
2022/07/22 06:05:14;;;;;;;8.43;5.15;;;;;;;;;;2062492;28;20186;-62
2022/07/22 06:06:15;;;;;;;7.35;5.70;;;;;;;;;;2071782;23;20256;-63
2022/07/22 06:07:17;;;;;;;7.97;5.30;;;;;;;;;;2065503;28;20342;-64